TLC weather

Licenciado Adolfo Lopez Mateos International Airport
Toluca, Mexico, Mexico

Public forecast

Using degrees Celsius for public forecast. Weather courtesy of forecast.io.

METAR (pilot weather report)

Retrieved 2019/04/25 20:50 UTC (1 hour ago):

MMTO 252050Z 18010KT 5SM BKN200 26/M02 A3029 RMK SLP045 57017 903 8/001 HZY AC

TAF (pilot weather forecast)

Retrieved 2019/04/25 18:53 UTC (3 hours ago):

TAF COR MMTO 251745Z 2518/2624 06005KT 4SM HZ FU BKN220 TX25/2521Z TN04/2613Z BECMG 2519/2520 24005KT FM252100 24012KT 5SM HZ SCT020 BKN220 FM260200 04005KT 5SM HZ BKN080 BKN220 FM261000 00000KT 3SM BR HZ SCT015 BKN080 FM261800 14005KT 6SM HZ SCT015 BKN080 FM262100 09012KT 5SM HZ BKN015CB BKN080 PROB40 2621/2624 4SM TSRA